Airfield :
LOGIN :

Register | Disclaimer

   EN    FR    IT 

 










Legend :    VFR   Marginal VFR   IFR   Intensive IFR   Very Intensive IFR
Visi :
Ceiling :
>= 8 km
>= 3000ft
5 to 8 km
1000 to 3000 ft
1500m to 5 km
500 to 1000 ft
800 to 1500m
200 to 500 ft
< 800m
< 200 ft
Symbols :   Thunderstorms  Fog  Heavy snow  Heavy precipitations  Wind > 20 kt
SIGMETs :     Misc.  Thunderstorms  Icing  Turbulence  Mountain Waves  Volcanic Ashes






- Airport Elevation : 326 ft
- IATA code : LCG


LECO - A Coruna

CURRENT METAR :
  • 171930Z VRB02KT 9999 FEW032 17/16 Q1018 NOSIG

EXPIRED METARs :
  • 171900Z 33005KT 280V020 9999 FEW032 18/16 Q1018 NOSIG
  • 171830Z 33006KT 290V360 9999 FEW032 18/16 Q1018 NOSIG
  • 171800Z 33006KT 280V020 9999 FEW024 19/16 Q1017 NOSIG
  • 171730Z 33009KT 300V020 9999 FEW022 19/16 Q1017 NOSIG
  • 171700Z 30007KT 230V020 9999 SCT022 19/16 Q1017 NOSIG

TAF TAF LECO
Valid from the 17 at 15:00 until the 18 at 15:00 UTC


171400Z 1715/1815 33007KT 9999 FEW020 SCT035 TX18/1812Z TN12/1803Z
PROB30
TEMPO 1723/1809 3000 RADZ BR BKN005



MET'MAP, your aeronautical weather chart ! - Copyright ORBIFLY December 2007 - Disclaimer

ORBIFLY MET'MAP TEAM :

Programming & Development : Alexandra Zaïnal
Concept & original design : Baudouin d'Aumeries
Assistance for programming : Marc-Olivier Méhu
Technical & hardware support : Manuel Goepfert

Contact : metmap@orbifly.com




SOURCES & CREDITS :

   NOAA